createdAt,value
2023-04-04T00:00:57.002Z,54.38
2023-04-04T00:03:23.590Z,53.97
2023-04-04T00:05:51.530Z,54.69
2023-04-04T00:08:18.130Z,54.09
2023-04-04T00:10:44.738Z,54.11
2023-04-04T00:13:11.432Z,54.47
2023-04-04T00:15:37.930Z,54.39
2023-04-04T00:18:04.778Z,54.69
2023-04-04T00:20:31.653Z,54.83
2023-04-04T00:22:58.959Z,54.49
2023-04-04T00:25:25.572Z,55.22
2023-04-04T00:27:52.042Z,54.96
2023-04-04T00:30:18.581Z,54.63
2023-04-04T00:32:45.676Z,55.11
2023-04-04T00:35:12.761Z,55.36
2023-04-04T00:37:39.267Z,54.62
2023-04-04T00:40:06.590Z,54.92
2023-04-04T00:42:34.080Z,55.13
2023-04-04T00:45:00.934Z,55.58
2023-04-04T00:47:31.156Z,55.54
2023-04-04T00:49:58.014Z,55.42
2023-04-04T00:52:24.749Z,55.06
2023-04-04T00:54:51.706Z,54.95
2023-04-04T00:57:19.330Z,54.66
2023-04-04T00:59:46.149Z,55.04
2023-04-04T01:02:12.868Z,56.08
2023-04-04T01:04:39.601Z,55.93
2023-04-04T01:07:06.879Z,55.84
2023-04-04T01:09:33.813Z,55.30
2023-04-04T01:12:02.394Z,55.62
2023-04-04T01:14:31.167Z,55.79
2023-04-04T01:16:59.215Z,55.05
2023-04-04T01:19:36.753Z,55.37
2023-04-04T01:22:11.471Z,55.98
2023-04-04T01:24:41.989Z,56.34
2023-04-04T01:27:08.827Z,56.07
2023-04-04T01:29:41.378Z,56.42
2023-04-04T01:32:14.723Z,56.58
2023-04-04T01:34:41.488Z,56.78
2023-04-04T01:37:19.081Z,56.93
2023-04-04T01:39:52.599Z,56.93
2023-04-04T01:42:20.290Z,56.77
2023-04-04T01:44:48.322Z,56.87
2023-04-04T01:47:14.792Z,57.34
2023-04-04T01:49:42.455Z,57.10
2023-04-04T01:52:09.514Z,57.48
2023-04-04T01:54:37.204Z,57.46
2023-04-04T01:57:03.852Z,57.59
2023-04-04T01:59:30.602Z,57.35
2023-04-04T02:01:57.659Z,57.88
2023-04-04T02:04:25.022Z,57.06
2023-04-04T02:06:52.630Z,57.10
2023-04-04T02:09:19.320Z,57.41
2023-04-04T02:11:46.624Z,58.10
2023-04-04T02:14:13.235Z,57.68
2023-04-04T02:16:39.785Z,57.71
2023-04-04T02:19:06.355Z,57.62
2023-04-04T02:21:36.049Z,57.38
2023-04-04T02:24:02.533Z,58.07
2023-04-04T02:26:29.008Z,58.42
2023-04-04T02:28:55.589Z,57.73
2023-04-04T02:31:22.888Z,58.40
2023-04-04T02:33:49.461Z,58.33
2023-04-04T02:36:18.886Z,58.23
2023-04-04T02:38:47.590Z,58.00
2023-04-04T02:41:14.568Z,58.23
2023-04-04T02:43:41.404Z,58.68
2023-04-04T02:46:20.466Z,58.74
2023-04-04T02:48:49.421Z,58.77
2023-04-04T02:51:16.048Z,58.84
2023-04-04T02:53:42.616Z,58.51
2023-04-04T02:56:19.773Z,58.07
2023-04-04T02:58:46.544Z,58.21
2023-04-04T03:01:13.283Z,58.69
2023-04-04T03:03:39.857Z,58.46
2023-04-04T03:06:06.659Z,58.73
2023-04-04T03:08:34.958Z,58.55
2023-04-04T03:11:02.664Z,58.60
2023-04-04T03:13:29.227Z,58.50
2023-04-04T03:16:02.664Z,59.21
2023-04-04T03:18:31.536Z,59.05
2023-04-04T03:20:58.405Z,58.94
2023-04-04T03:23:24.964Z,59.12
2023-04-04T03:25:51.662Z,59.06
2023-04-04T03:28:18.176Z,59.17
2023-04-04T03:30:44.737Z,59.32
2023-04-04T03:33:12.199Z,59.53
2023-04-04T03:35:39.669Z,59.56
2023-04-04T03:38:06.861Z,59.67
2023-04-04T03:40:33.506Z,60.28
2023-04-04T03:43:02.262Z,59.83
2023-04-04T03:45:32.608Z,60.03
2023-04-04T03:47:59.429Z,59.94
2023-04-04T03:50:27.498Z,60.23
2023-04-04T03:52:54.251Z,60.45
2023-04-04T03:55:20.755Z,60.39
2023-04-04T03:57:47.798Z,60.34
2023-04-04T04:00:16.475Z,60.33
2023-04-04T04:02:44.660Z,60.23
2023-04-04T04:05:11.753Z,60.00
2023-04-04T04:07:38.432Z,60.50
2023-04-04T04:10:05.566Z,60.59
2023-04-04T04:12:32.736Z,60.45
2023-04-04T04:14:59.344Z,60.46
2023-04-04T04:17:25.891Z,60.78
2023-04-04T04:19:53.824Z,61.20
2023-04-04T04:22:20.373Z,60.90
2023-04-04T04:24:46.940Z,60.93
2023-04-04T04:27:13.419Z,61.05
2023-04-04T04:29:40.477Z,61.33
2023-04-04T04:32:07.592Z,60.13
2023-04-04T04:34:39.256Z,60.84
2023-04-04T04:37:06.178Z,61.29
2023-04-04T04:39:46.422Z,61.01
2023-04-04T04:42:22.955Z,61.30
2023-04-04T04:44:55.390Z,61.61
2023-04-04T04:47:22.937Z,61.73
2023-04-04T04:49:49.882Z,61.37
2023-04-04T04:52:21.728Z,61.97
2023-04-04T04:54:49.338Z,61.71
2023-04-04T04:57:15.982Z,61.65
2023-04-04T04:59:44.053Z,61.91
2023-04-04T05:02:12.677Z,61.64
2023-04-04T05:04:45.190Z,61.59
2023-04-04T05:07:14.165Z,61.91
2023-04-04T05:09:43.646Z,62.32
2023-04-04T05:12:11.029Z,62.00
2023-04-04T05:14:41.883Z,61.88
2023-04-04T05:17:08.444Z,62.31
2023-04-04T05:19:35.744Z,62.33
2023-04-04T05:22:03.042Z,62.01
2023-04-04T05:24:37.985Z,62.27
2023-04-04T05:27:05.132Z,62.38
2023-04-04T05:29:38.322Z,62.51
2023-04-04T05:32:05.271Z,62.41
2023-04-04T05:34:34.416Z,62.79
2023-04-04T05:37:06.496Z,62.59
2023-04-04T05:39:34.489Z,62.90
2023-04-04T05:42:05.461Z,62.23
2023-04-04T05:44:37.143Z,63.10
2023-04-04T05:47:05.273Z,63.07
2023-04-04T05:49:31.832Z,63.25
2023-04-04T05:52:01.198Z,63.47
2023-04-04T05:54:29.253Z,63.44
2023-04-04T05:56:57.526Z,63.01
2023-04-04T05:59:37.361Z,63.15
2023-04-04T06:02:06.258Z,63.25
2023-04-04T06:04:33.635Z,63.60
2023-04-04T06:07:02.505Z,63.60
2023-04-04T06:09:29.146Z,63.53
2023-04-04T06:11:56.295Z,63.48
2023-04-04T06:14:22.871Z,63.43
2023-04-04T06:16:50.673Z,63.22
2023-04-04T06:19:17.194Z,63.66
2023-04-04T06:21:43.752Z,63.30
2023-04-04T06:24:12.342Z,63.35
2023-04-04T06:26:39.218Z,63.32
2023-04-04T06:29:06.158Z,63.44
2023-04-04T06:31:36.806Z,63.04
2023-04-04T06:34:14.862Z,63.65
2023-04-04T06:36:51.780Z,63.42
2023-04-04T06:39:19.007Z,63.08
2023-04-04T06:41:48.037Z,62.69
2023-04-04T06:44:14.792Z,63.24
2023-04-04T06:46:41.683Z,62.88
2023-04-04T06:49:08.272Z,62.53
2023-04-04T06:51:34.972Z,62.34
2023-04-04T06:54:01.733Z,62.68
2023-04-04T06:56:28.392Z,62.44
2023-04-04T06:58:54.937Z,62.51
2023-04-04T07:01:21.616Z,62.71
2023-04-04T07:03:49.228Z,61.51
2023-04-04T07:06:15.790Z,61.97
2023-04-04T07:08:42.343Z,62.25
2023-04-04T07:11:09.001Z,62.05
2023-04-04T07:13:35.566Z,62.29
2023-04-04T07:16:02.613Z,61.89
2023-04-04T07:18:29.132Z,62.07
2023-04-04T07:20:55.775Z,61.49
2023-04-04T07:23:22.337Z,61.69
2023-04-04T07:25:49.085Z,61.04
2023-04-04T07:28:15.787Z,61.47
2023-04-04T07:30:42.644Z,61.44
2023-04-04T07:33:09.472Z,61.44
2023-04-04T07:35:36.354Z,61.63
2023-04-04T07:38:04.231Z,61.31
2023-04-04T07:40:31.733Z,61.19
2023-04-04T07:42:58.213Z,60.42
2023-04-04T07:45:24.761Z,60.42
2023-04-04T07:47:51.523Z,60.14
2023-04-04T07:50:19.129Z,60.51
2023-04-04T07:52:54.503Z,59.64
2023-04-04T07:55:21.377Z,60.34
2023-04-04T07:57:48.054Z,58.84
2023-04-04T08:00:15.134Z,59.30
2023-04-04T08:02:44.690Z,58.84
2023-04-04T08:05:11.384Z,58.91
2023-04-04T08:07:37.931Z,58.91
2023-04-04T08:10:04.902Z,58.33
2023-04-04T08:12:31.448Z,58.58
2023-04-04T08:14:57.967Z,57.18
2023-04-04T08:17:24.688Z,57.26
2023-04-04T08:19:51.279Z,56.54
2023-04-04T08:22:18.341Z,56.09
2023-04-04T08:24:44.970Z,55.65
2023-04-04T08:27:11.584Z,55.64
2023-04-04T08:29:38.133Z,55.56
2023-04-04T08:32:05.100Z,55.70
2023-04-04T08:34:32.116Z,55.46
2023-04-04T08:36:59.829Z,54.47
2023-04-04T08:39:27.217Z,53.82
2023-04-04T08:42:05.577Z,52.16
2023-04-04T08:44:34.064Z,53.66
2023-04-04T08:47:03.349Z,53.54
2023-04-04T08:49:38.245Z,52.78
2023-04-04T08:52:06.375Z,53.03
2023-04-04T08:54:34.419Z,52.06
2023-04-04T08:57:01.666Z,52.74
2023-04-04T08:59:28.300Z,51.16
2023-04-04T09:02:11.696Z,51.72
2023-04-04T09:04:39.944Z,52.04
2023-04-04T09:07:07.002Z,51.00
2023-04-04T09:09:34.220Z,51.06
2023-04-04T09:12:02.319Z,52.00
2023-04-04T09:14:30.841Z,49.78
2023-04-04T09:16:57.916Z,49.98
2023-04-04T09:19:26.272Z,50.12
2023-04-04T09:21:53.117Z,51.06
2023-04-04T09:24:19.672Z,51.02
2023-04-04T09:26:51.571Z,50.70
2023-04-04T09:29:21.754Z,51.11
2023-04-04T09:31:52.189Z,50.94
2023-04-04T09:34:20.185Z,50.80
2023-04-04T09:36:47.679Z,49.92
2023-04-04T09:39:16.633Z,50.41
2023-04-04T09:41:45.371Z,49.25
2023-04-04T09:44:13.167Z,49.56
2023-04-04T09:46:40.720Z,49.38
2023-04-04T09:49:13.950Z,51.20
2023-04-04T09:51:42.486Z,49.34
2023-04-04T09:54:28.706Z,48.66
2023-04-04T09:56:56.965Z,49.27
2023-04-04T09:59:24.277Z,48.51
2023-04-04T10:01:53.442Z,48.19
2023-04-04T10:04:20.232Z,47.67
2023-04-04T10:06:47.122Z,48.74
2023-04-04T10:09:15.450Z,49.02
2023-04-04T10:11:42.115Z,48.56
2023-04-04T10:14:09.345Z,49.00
2023-04-04T10:16:39.119Z,48.73
2023-04-04T10:19:09.023Z,48.64
2023-04-04T10:21:35.756Z,47.54
2023-04-04T10:24:08.862Z,47.79
2023-04-04T10:26:35.512Z,48.62
2023-04-04T10:29:02.019Z,48.55
2023-04-04T10:31:31.253Z,47.97
2023-04-04T10:34:13.697Z,48.83
2023-04-04T10:36:45.891Z,47.46
2023-04-04T10:39:27.616Z,46.41
2023-04-04T10:41:56.556Z,47.44
2023-04-04T10:44:29.918Z,47.83
2023-04-04T10:46:59.666Z,47.20
2023-04-04T10:49:29.918Z,47.47
2023-04-04T10:51:57.525Z,47.26
2023-04-04T10:54:26.281Z,46.86
2023-04-04T10:56:55.107Z,46.76
2023-04-04T10:59:25.256Z,46.91
2023-04-04T11:02:02.330Z,46.60
2023-04-04T11:04:33.875Z,46.36
2023-04-04T11:07:06.913Z,46.55
2023-04-04T11:10:16.290Z,47.18
2023-04-04T11:12:45.780Z,46.21
2023-04-04T11:15:21.358Z,46.49
2023-04-04T11:17:57.625Z,46.28
2023-04-04T11:20:33.264Z,47.18
2023-04-04T11:23:08.770Z,46.57
2023-04-04T11:25:39.807Z,46.40
2023-04-04T11:28:08.856Z,45.37
2023-04-04T11:30:48.003Z,46.12
2023-04-04T11:33:27.511Z,46.33
2023-04-04T11:35:58.961Z,45.53
2023-04-04T11:38:26.883Z,45.24
2023-04-04T11:40:54.798Z,45.36
2023-04-04T11:43:21.558Z,45.55
2023-04-04T11:45:48.744Z,45.40
2023-04-04T11:48:17.652Z,45.43
2023-04-04T11:50:49.910Z,45.14
2023-04-04T11:53:17.574Z,44.95
2023-04-04T11:55:47.921Z,45.28
2023-04-04T11:58:16.846Z,45.61
2023-04-04T12:00:44.094Z,45.98
2023-04-04T12:03:12.564Z,44.80
2023-04-04T12:05:41.147Z,45.30
2023-04-04T12:08:10.111Z,46.04
2023-04-04T12:10:39.049Z,44.28
2023-04-04T12:13:07.302Z,44.10
2023-04-04T12:15:36.080Z,45.17
2023-04-04T12:18:09.146Z,44.98
2023-04-04T12:20:39.596Z,42.17
2023-04-04T12:23:06.156Z,44.23
2023-04-04T12:25:34.181Z,44.24
2023-04-04T12:28:03.879Z,44.48
2023-04-04T12:30:30.695Z,44.09
2023-04-04T12:32:57.624Z,43.07
2023-04-04T12:35:24.697Z,43.54
2023-04-04T12:37:59.406Z,43.81
2023-04-04T12:40:29.923Z,42.89
2023-04-04T12:42:57.314Z,44.23
2023-04-04T12:45:26.649Z,43.22
2023-04-04T12:47:54.865Z,42.69
2023-04-04T12:50:27.368Z,42.66
2023-04-04T12:52:55.536Z,41.08
2023-04-04T12:55:31.440Z,42.41
2023-04-04T12:58:00.842Z,40.59
2023-04-04T13:00:27.403Z,39.22
2023-04-04T13:02:55.384Z,40.85
2023-04-04T13:05:25.650Z,39.09
2023-04-04T13:08:05.698Z,42.05
2023-04-04T13:11:03.682Z,41.83
2023-04-04T13:13:38.681Z,39.90
2023-04-04T13:16:07.826Z,38.80
2023-04-04T13:18:43.486Z,39.10
2023-04-04T13:21:11.968Z,41.32
2023-04-04T13:23:41.381Z,39.79
2023-04-04T13:26:09.699Z,40.43
2023-04-04T13:28:36.603Z,39.56
2023-04-04T13:31:08.111Z,42.04
2023-04-04T13:33:35.101Z,39.66
2023-04-04T13:36:01.677Z,39.83
2023-04-04T13:38:29.676Z,39.76
2023-04-04T13:40:59.852Z,38.99
2023-04-04T13:43:27.194Z,41.48
2023-04-04T13:45:55.373Z,40.71
2023-04-04T13:48:22.209Z,41.31
2023-04-04T13:50:51.546Z,40.31
2023-04-04T13:53:18.726Z,39.86
2023-04-04T13:56:01.407Z,41.41
2023-04-04T13:58:32.875Z,41.43
2023-04-04T14:01:04.124Z,40.09
2023-04-04T14:03:31.351Z,40.45
2023-04-04T14:06:00.291Z,40.19
2023-04-04T14:08:30.622Z,40.40
2023-04-04T14:10:57.455Z,40.29
2023-04-04T14:13:23.964Z,39.76
2023-04-04T14:15:50.849Z,40.83
2023-04-04T14:18:17.508Z,40.40
2023-04-04T14:20:44.283Z,38.85
2023-04-04T14:23:11.011Z,38.66
2023-04-04T14:25:37.584Z,38.02
2023-04-04T14:28:04.143Z,38.62
2023-04-04T14:30:30.784Z,39.27
2023-04-04T14:32:57.365Z,38.24
2023-04-04T14:35:23.947Z,39.76
2023-04-04T14:37:50.521Z,38.52
2023-04-04T14:40:17.393Z,37.71
2023-04-04T14:42:43.870Z,38.02
2023-04-04T14:45:12.212Z,38.91
2023-04-04T14:47:38.790Z,38.55
2023-04-04T14:50:06.080Z,37.36
2023-04-04T14:52:33.698Z,38.67
2023-04-04T14:55:00.915Z,35.97
2023-04-04T14:57:28.703Z,38.08
2023-04-04T14:59:55.399Z,36.42
2023-04-04T15:02:22.139Z,36.00
2023-04-04T15:04:48.817Z,36.86
2023-04-04T15:07:15.747Z,33.99
2023-04-04T15:09:42.321Z,34.63
2023-04-04T15:12:08.925Z,35.51
2023-04-04T15:14:36.576Z,34.35
2023-04-04T15:17:03.092Z,36.40
2023-04-04T15:19:29.636Z,35.90
2023-04-04T15:21:57.104Z,35.62
2023-04-04T15:24:23.689Z,35.68
2023-04-04T15:26:50.207Z,35.94
2023-04-04T15:29:16.787Z,35.97
2023-04-04T15:31:43.366Z,34.38
2023-04-04T15:34:09.890Z,35.15
2023-04-04T15:36:36.430Z,35.88
2023-04-04T15:39:03.428Z,34.53
2023-04-04T15:41:30.061Z,34.36
2023-04-04T15:43:56.658Z,33.95
2023-04-04T15:46:23.280Z,34.87
2023-04-04T15:48:52.013Z,33.67
2023-04-04T15:51:18.753Z,35.43
2023-04-04T15:53:45.374Z,35.82
2023-04-04T15:56:13.450Z,35.31
2023-04-04T15:58:39.959Z,34.66
2023-04-04T16:01:07.345Z,34.85
2023-04-04T16:03:34.103Z,35.76
2023-04-04T16:06:00.680Z,34.56
2023-04-04T16:08:27.230Z,34.66
2023-04-04T16:10:53.846Z,36.24
2023-04-04T16:13:20.397Z,35.43
2023-04-04T16:15:46.933Z,35.30
2023-04-04T16:18:13.521Z,34.41
2023-04-04T16:20:40.404Z,35.79
2023-04-04T16:23:07.100Z,35.19
2023-04-04T16:25:33.681Z,36.43
2023-04-04T16:28:00.414Z,35.80
2023-04-04T16:30:28.395Z,34.90
2023-04-04T16:32:55.041Z,35.51
2023-04-04T16:35:21.581Z,35.81
2023-04-04T16:37:48.191Z,35.38
2023-04-04T16:40:15.576Z,35.70
2023-04-04T16:42:42.195Z,36.64
2023-04-04T16:45:09.457Z,37.22
2023-04-04T16:47:36.706Z,35.55
2023-04-04T16:50:07.096Z,37.18
2023-04-04T16:52:33.635Z,36.65
2023-04-04T16:55:00.401Z,36.27
2023-04-04T16:57:27.130Z,36.51
2023-04-04T16:59:53.729Z,37.79
2023-04-04T17:02:20.288Z,37.25
2023-04-04T17:04:46.900Z,36.77
2023-04-04T17:07:13.419Z,36.79
2023-04-04T17:09:39.972Z,37.34
2023-04-04T17:12:06.534Z,39.24
2023-04-04T17:14:33.423Z,37.82
2023-04-04T17:17:00.437Z,37.96
2023-04-04T17:19:29.838Z,37.20
2023-04-04T17:21:56.921Z,37.09
2023-04-04T17:24:25.411Z,37.79
2023-04-04T17:26:52.325Z,37.08
2023-04-04T17:29:20.610Z,36.15
2023-04-04T17:31:48.848Z,37.26
2023-04-04T17:34:16.138Z,38.37
2023-04-04T17:36:43.701Z,38.05
2023-04-04T17:39:10.257Z,38.65
2023-04-04T17:41:37.937Z,38.03
2023-04-04T17:44:04.522Z,38.80
2023-04-04T17:46:31.080Z,38.96
2023-04-04T17:48:57.638Z,38.93
2023-04-04T17:51:24.318Z,39.15
2023-04-04T17:53:51.299Z,40.00
2023-04-04T17:56:17.944Z,39.73
2023-04-04T17:58:44.516Z,39.74
2023-04-04T18:01:11.517Z,39.76
2023-04-04T18:03:38.487Z,39.36
2023-04-04T18:06:05.796Z,39.73
2023-04-04T18:08:32.316Z,40.33
2023-04-04T18:10:58.883Z,39.68
2023-04-04T18:13:25.411Z,39.89
2023-04-04T18:15:53.175Z,40.03
2023-04-04T18:18:21.221Z,39.65
2023-04-04T18:20:48.215Z,39.57
2023-04-04T18:23:16.650Z,40.09
2023-04-04T18:25:43.347Z,40.83
2023-04-04T18:28:09.864Z,40.34
2023-04-04T18:30:37.486Z,39.81
2023-04-04T18:33:04.588Z,40.55
2023-04-04T18:35:31.340Z,40.91
2023-04-04T18:37:57.930Z,40.91
2023-04-04T18:40:24.429Z,40.50
2023-04-04T18:42:52.144Z,41.54
2023-04-04T18:45:20.909Z,41.18
2023-04-04T18:47:49.979Z,41.37
2023-04-04T18:50:16.938Z,41.67
2023-04-04T18:52:43.486Z,41.34
2023-04-04T18:55:10.675Z,41.30
2023-04-04T18:57:37.660Z,41.74
2023-04-04T19:00:06.690Z,41.95
2023-04-04T19:02:34.175Z,42.86
2023-04-04T19:05:02.872Z,41.90
2023-04-04T19:07:31.409Z,43.26
2023-04-04T19:09:59.305Z,42.92
2023-04-04T19:12:25.919Z,42.16
2023-04-04T19:14:52.471Z,42.77
2023-04-04T19:17:19.055Z,42.85
2023-04-04T19:19:45.522Z,43.01
2023-04-04T19:22:12.177Z,43.08
2023-04-04T19:24:42.183Z,43.13
2023-04-04T19:27:08.787Z,43.16
2023-04-04T19:29:36.497Z,43.43
2023-04-04T19:32:14.277Z,43.24
2023-04-04T19:34:42.854Z,44.23
2023-04-04T19:37:12.814Z,44.44
2023-04-04T19:39:41.629Z,44.60
2023-04-04T19:42:08.877Z,44.93
2023-04-04T19:44:42.907Z,44.15
2023-04-04T19:47:19.273Z,44.48
2023-04-04T19:49:45.825Z,44.56
2023-04-04T19:52:13.935Z,45.27
2023-04-04T19:54:42.893Z,44.55
2023-04-04T19:57:20.003Z,46.12
2023-04-04T20:00:09.555Z,45.70
2023-04-04T20:02:53.327Z,46.07
2023-04-04T20:05:46.221Z,46.11
2023-04-04T20:08:14.277Z,47.27
2023-04-04T20:10:42.221Z,47.24
2023-04-04T20:13:09.511Z,47.63
2023-04-04T20:15:44.907Z,47.80
2023-04-04T20:18:20.510Z,48.36
2023-04-04T20:21:04.672Z,48.32
2023-04-04T20:23:32.923Z,48.76
2023-04-04T20:26:05.828Z,47.88
2023-04-04T20:28:32.753Z,48.46
2023-04-04T20:31:12.166Z,49.15
2023-04-04T20:33:40.535Z,48.83
2023-04-04T20:36:08.677Z,49.23
2023-04-04T20:38:36.850Z,49.02
2023-04-04T20:41:10.641Z,49.51
2023-04-04T20:43:38.292Z,49.74
2023-04-04T20:46:04.975Z,49.66
2023-04-04T20:48:39.756Z,50.69
2023-04-04T20:51:23.956Z,50.01
2023-04-04T20:53:51.886Z,50.67
2023-04-04T20:56:44.844Z,49.85
2023-04-04T20:59:36.296Z,49.95
2023-04-04T21:02:16.576Z,49.98
2023-04-04T21:04:45.609Z,50.75
2023-04-04T21:07:41.548Z,50.42
2023-04-04T21:10:29.285Z,50.67
2023-04-04T21:13:03.331Z,50.56
2023-04-04T21:15:33.636Z,50.84
2023-04-04T21:18:04.836Z,50.88
2023-04-04T21:21:10.281Z,50.34
2023-04-04T21:23:58.597Z,50.63
2023-04-04T21:26:33.995Z,51.11
2023-04-04T21:29:03.804Z,50.50
2023-04-04T21:31:38.596Z,50.97
2023-04-04T21:34:14.050Z,50.91
2023-04-04T21:36:41.036Z,50.66
2023-04-04T21:39:13.936Z,50.88
2023-04-04T21:41:41.326Z,50.88
2023-04-04T21:44:10.386Z,51.53
2023-04-04T21:46:39.534Z,51.62
2023-04-04T21:49:07.132Z,51.49
2023-04-04T21:51:33.906Z,50.53
2023-04-04T21:54:01.165Z,50.32
2023-04-04T21:56:31.325Z,50.51
2023-04-04T21:59:02.687Z,51.01
2023-04-04T22:01:30.383Z,51.27
2023-04-04T22:03:58.030Z,50.90
2023-04-04T22:06:26.148Z,51.63
2023-04-04T22:08:56.456Z,52.03
2023-04-04T22:11:26.007Z,51.82
2023-04-04T22:14:03.084Z,51.93
2023-04-04T22:16:30.991Z,52.18
2023-04-04T22:18:58.886Z,52.02
2023-04-04T22:21:28.150Z,52.18
2023-04-04T22:24:00.960Z,52.47
2023-04-04T22:26:33.852Z,52.49
2023-04-04T22:29:02.622Z,52.79
2023-04-04T22:31:29.263Z,52.91
2023-04-04T22:33:56.175Z,53.22
2023-04-04T22:36:24.351Z,52.92
2023-04-04T22:38:56.532Z,52.74
2023-04-04T22:41:28.130Z,53.08
2023-04-04T22:43:55.342Z,53.19
2023-04-04T22:46:22.085Z,52.97
2023-04-04T22:48:48.834Z,53.13
2023-04-04T22:51:16.287Z,53.24
2023-04-04T22:53:44.040Z,53.33
2023-04-04T22:56:11.079Z,53.53
2023-04-04T22:58:37.760Z,53.82
2023-04-04T23:01:04.848Z,53.77
2023-04-04T23:03:31.798Z,53.88
2023-04-04T23:05:58.298Z,54.03
2023-04-04T23:08:24.879Z,54.08
2023-04-04T23:10:51.367Z,54.06
2023-04-04T23:13:17.892Z,54.08
2023-04-04T23:15:45.131Z,54.22
2023-04-04T23:18:12.500Z,54.88
2023-04-04T23:20:39.609Z,54.90
2023-04-04T23:23:06.330Z,54.54
2023-04-04T23:25:32.881Z,54.70
2023-04-04T23:27:59.360Z,54.71
2023-04-04T23:30:25.986Z,54.67
2023-04-04T23:32:52.704Z,54.89
2023-04-04T23:35:19.326Z,55.44
2023-04-04T23:37:45.954Z,55.50
2023-04-04T23:40:12.993Z,55.63
2023-04-04T23:42:39.493Z,55.78
2023-04-04T23:45:06.670Z,55.87
2023-04-04T23:47:33.421Z,56.04
2023-04-04T23:50:00.165Z,56.25
2023-04-04T23:52:27.062Z,56.30
2023-04-04T23:54:53.542Z,56.29
2023-04-04T23:57:20.079Z,56.28
2023-04-04T23:59:46.691Z,56.26
